createdAt,value
2023-04-23T00:01:48.143Z,96491.25
2023-04-23T00:04:18.186Z,96484.31
2023-04-23T00:06:47.428Z,96482.63
2023-04-23T00:09:16.796Z,96481.91
2023-04-23T00:11:43.497Z,96478.91
2023-04-23T00:14:10.548Z,96475.78
2023-04-23T00:16:37.908Z,96472.41
2023-04-23T00:19:04.490Z,96468.97
2023-04-23T00:21:31.782Z,96467.28
2023-04-23T00:23:58.312Z,96477.00
2023-04-23T00:26:24.814Z,96473.50
2023-04-23T00:28:51.269Z,96475.56
2023-04-23T00:31:17.867Z,96475.78
2023-04-23T00:33:44.442Z,96481.44
2023-04-23T00:36:10.973Z,96476.41
2023-04-23T00:38:37.685Z,96493.41
2023-04-23T00:41:04.654Z,96488.78
2023-04-23T00:43:32.143Z,96491.41
2023-04-23T00:45:58.756Z,96495.34
2023-04-23T00:48:26.059Z,96489.34
2023-04-23T00:51:00.677Z,96484.22
2023-04-23T00:53:27.397Z,96499.53
2023-04-23T00:55:54.648Z,96483.47
2023-04-23T00:58:21.614Z,96500.84
2023-04-23T01:00:49.218Z,96496.03
2023-04-23T01:03:18.447Z,96494.34
2023-04-23T01:05:45.511Z,96488.00
2023-04-23T01:08:15.564Z,96497.31
2023-04-23T01:10:45.810Z,96491.09
2023-04-23T01:13:13.156Z,96487.25
2023-04-23T01:15:39.740Z,96476.38
2023-04-23T01:18:07.910Z,96486.69
2023-04-23T01:20:35.646Z,96489.31
2023-04-23T01:23:06.488Z,96485.66
2023-04-23T01:25:33.057Z,96488.50
2023-04-23T01:27:59.794Z,96494.97
2023-04-23T01:30:27.669Z,96482.25
2023-04-23T01:32:57.747Z,96490.84
2023-04-23T01:35:24.705Z,96495.88
2023-04-23T01:37:52.572Z,96493.47
2023-04-23T01:40:20.310Z,96489.44
2023-04-23T01:42:48.631Z,96499.25
2023-04-23T01:45:15.614Z,96503.81
2023-04-23T01:47:42.457Z,96500.84
2023-04-23T01:50:09.863Z,96501.34
2023-04-23T01:52:36.540Z,96504.25
2023-04-23T01:55:03.761Z,96500.88
2023-04-23T01:57:30.765Z,96499.94
2023-04-23T02:00:08.149Z,96501.16
2023-04-23T02:02:39.835Z,96501.97
2023-04-23T02:05:12.228Z,96500.31
2023-04-23T02:07:39.437Z,96501.34
2023-04-23T02:10:06.870Z,96499.94
2023-04-23T02:12:33.483Z,96499.09
2023-04-23T02:15:00.078Z,96509.66
2023-04-23T02:17:28.409Z,96503.97
2023-04-23T02:19:56.075Z,96493.56
2023-04-23T02:22:25.055Z,96499.66
2023-04-23T02:24:52.741Z,96493.31
2023-04-23T02:27:19.527Z,96493.31
2023-04-23T02:29:46.557Z,96495.13
2023-04-23T02:32:13.247Z,96494.31
2023-04-23T02:34:40.019Z,96498.50
2023-04-23T02:37:07.142Z,96501.69
2023-04-23T02:39:33.830Z,96512.81
2023-04-23T02:42:00.655Z,96501.69
2023-04-23T02:44:27.297Z,96512.69
2023-04-23T02:46:54.526Z,96507.06
2023-04-23T02:49:21.164Z,96499.16
2023-04-23T02:51:47.720Z,96496.53
2023-04-23T02:54:14.525Z,96508.44
2023-04-23T02:56:41.046Z,96503.38
2023-04-23T02:59:09.219Z,96506.88
2023-04-23T03:01:35.733Z,96506.91
2023-04-23T03:04:03.740Z,96508.22
2023-04-23T03:06:35.703Z,96507.25
2023-04-23T03:09:02.394Z,96501.13
2023-04-23T03:11:29.086Z,96503.56
2023-04-23T03:13:55.635Z,96501.00
2023-04-23T03:16:22.285Z,96497.31
2023-04-23T03:18:48.870Z,96490.59
2023-04-23T03:21:15.433Z,96493.09
2023-04-23T03:23:41.940Z,96497.66
2023-04-23T03:26:08.422Z,96495.03
2023-04-23T03:28:35.193Z,96492.28
2023-04-23T03:31:01.906Z,96486.19
2023-04-23T03:33:28.515Z,96489.75
2023-04-23T03:35:55.096Z,96485.94
2023-04-23T03:38:21.600Z,96496.22
2023-04-23T03:40:48.257Z,96491.09
2023-04-23T03:43:14.808Z,96486.78
2023-04-23T03:45:41.305Z,96490.59
2023-04-23T03:48:07.839Z,96493.47
2023-04-23T03:50:38.847Z,96490.84
2023-04-23T03:53:08.178Z,96494.31
2023-04-23T03:55:34.680Z,96493.47
2023-04-23T03:58:01.836Z,96490.03
2023-04-23T04:00:29.936Z,96499.09
2023-04-23T04:02:56.546Z,96497.47
2023-04-23T04:05:23.429Z,96500.91
2023-04-23T04:07:49.963Z,96495.38
2023-04-23T04:10:16.599Z,96499.84
2023-04-23T04:12:44.969Z,96496.13
2023-04-23T04:15:12.636Z,96502.47
2023-04-23T04:17:39.505Z,96506.91
2023-04-23T04:20:11.195Z,96502.72
2023-04-23T04:22:38.330Z,96508.22
2023-04-23T04:25:05.375Z,96507.88
2023-04-23T04:27:34.707Z,96512.75
2023-04-23T04:30:02.197Z,96516.13
2023-04-23T04:32:28.758Z,96514.19
2023-04-23T04:34:55.315Z,96515.75
2023-04-23T04:37:21.914Z,96520.34
2023-04-23T04:39:48.540Z,96522.84
2023-04-23T04:42:15.722Z,96527.63
2023-04-23T04:44:43.606Z,96525.47
2023-04-23T04:47:10.713Z,96535.63
2023-04-23T04:49:38.302Z,96527.22
2023-04-23T04:52:04.970Z,96525.28
2023-04-23T04:54:31.689Z,96526.59
2023-04-23T04:56:58.182Z,96523.78
2023-04-23T04:59:24.664Z,96535.97
2023-04-23T05:01:51.191Z,96534.63
2023-04-23T05:04:17.996Z,96527.44
2023-04-23T05:06:44.542Z,96531.72
2023-04-23T05:09:11.554Z,96528.25
2023-04-23T05:11:38.165Z,96533.84
2023-04-23T05:14:04.750Z,96532.63
2023-04-23T05:16:31.344Z,96545.31
2023-04-23T05:18:57.920Z,96545.44
2023-04-23T05:21:24.475Z,96546.41
2023-04-23T05:23:51.035Z,96548.72
2023-04-23T05:26:18.232Z,96552.59
2023-04-23T05:28:44.825Z,96546.22
2023-04-23T05:31:11.482Z,96554.31
2023-04-23T05:33:49.260Z,96556.38
2023-04-23T05:36:16.795Z,96559.44
2023-04-23T05:38:43.339Z,96556.78
2023-04-23T05:41:09.863Z,96555.06
2023-04-23T05:43:36.439Z,96551.59
2023-04-23T05:46:04.773Z,96558.34
2023-04-23T05:48:31.367Z,96551.84
2023-04-23T05:50:58.480Z,96553.94
2023-04-23T05:53:25.205Z,96559.81
2023-04-23T05:55:51.713Z,96558.13
2023-04-23T05:58:19.250Z,96566.34
2023-04-23T06:00:45.890Z,96561.47
2023-04-23T06:03:12.797Z,96563.97
2023-04-23T06:05:39.523Z,96556.00
2023-04-23T06:08:06.158Z,96567.00
2023-04-23T06:10:32.719Z,96571.44
2023-04-23T06:12:59.236Z,96572.41
2023-04-23T06:15:27.169Z,96574.75
2023-04-23T06:17:54.584Z,96579.19
2023-04-23T06:20:21.140Z,96576.34
2023-04-23T06:22:47.743Z,96577.16
2023-04-23T06:25:14.266Z,96573.47
2023-04-23T06:27:40.938Z,96577.91
2023-04-23T06:30:08.063Z,96572.28
2023-04-23T06:32:34.663Z,96572.25
2023-04-23T06:35:02.235Z,96575.56
2023-04-23T06:37:30.795Z,96580.03
2023-04-23T06:39:58.951Z,96573.38
2023-04-23T06:42:25.444Z,96579.75
2023-04-23T06:44:52.122Z,96584.13
2023-04-23T06:47:19.513Z,96583.84
2023-04-23T06:49:46.066Z,96583.59
2023-04-23T06:52:12.659Z,96586.03
2023-04-23T06:54:39.463Z,96591.75
2023-04-23T06:57:06.476Z,96596.88
2023-04-23T06:59:33.049Z,96595.00
2023-04-23T07:01:59.609Z,96598.03
2023-04-23T07:04:26.173Z,96601.75
2023-04-23T07:06:52.737Z,96605.44
2023-04-23T07:09:19.241Z,96607.13
2023-04-23T07:11:45.832Z,96615.44
2023-04-23T07:14:12.332Z,96616.25
2023-04-23T07:16:38.947Z,96616.41
2023-04-23T07:19:05.618Z,96617.06
2023-04-23T07:21:33.081Z,96612.28
2023-04-23T07:24:00.807Z,96610.25
2023-04-23T07:26:28.040Z,96616.47
2023-04-23T07:28:54.816Z,96613.28
2023-04-23T07:31:21.969Z,96614.16
2023-04-23T07:33:48.528Z,96625.31
2023-04-23T07:36:15.265Z,96618.47
2023-04-23T07:38:42.035Z,96616.13
2023-04-23T07:41:08.668Z,96615.06
2023-04-23T07:43:35.205Z,96616.22
2023-04-23T07:46:01.961Z,96618.03
2023-04-23T07:48:28.579Z,96622.56
2023-04-23T07:50:55.166Z,96616.09
2023-04-23T07:53:21.971Z,96610.72
2023-04-23T07:55:48.490Z,96612.66
2023-04-23T07:58:15.154Z,96621.81
2023-04-23T08:00:41.840Z,96617.91
2023-04-23T08:03:08.479Z,96614.03
2023-04-23T08:05:37.268Z,96622.56
2023-04-23T08:08:06.087Z,96616.25
2023-04-23T08:10:35.278Z,96615.41
2023-04-23T08:13:02.192Z,96616.94
2023-04-23T08:15:31.859Z,96614.91
2023-04-23T08:17:58.478Z,96606.75
2023-04-23T08:20:25.769Z,96617.06
2023-04-23T08:22:53.817Z,96619.06
2023-04-23T08:25:23.417Z,96614.38
2023-04-23T08:27:50.116Z,96613.38
2023-04-23T08:30:16.709Z,96615.72
2023-04-23T08:32:50.232Z,96612.25
2023-04-23T08:58:22.695Z,96619.38
2023-04-23T09:00:50.033Z,96624.25
2023-04-23T09:03:17.468Z,96620.09
2023-04-23T09:05:44.586Z,96619.19
2023-04-23T09:08:11.087Z,96630.50
2023-04-23T09:10:41.834Z,96620.31
2023-04-23T09:13:11.512Z,96620.22
2023-04-23T09:15:43.461Z,96618.31
2023-04-23T09:18:10.860Z,96621.81
2023-04-23T09:20:37.589Z,96614.34
2023-04-23T09:23:08.055Z,96611.25
2023-04-23T09:25:34.640Z,96613.13
2023-04-23T09:28:01.784Z,96604.56
2023-04-23T09:30:28.433Z,96607.59
2023-04-23T09:32:55.510Z,96613.50
2023-04-23T09:35:22.997Z,96605.97
2023-04-23T09:37:52.497Z,96603.69
2023-04-23T09:40:23.958Z,96603.88
2023-04-23T09:42:56.527Z,96592.91
2023-04-23T09:45:25.631Z,96592.72
2023-04-23T09:47:55.141Z,96591.91
2023-04-23T09:50:38.997Z,96593.75
2023-04-23T09:53:07.239Z,96593.09
2023-04-23T09:55:39.126Z,96588.25
2023-04-23T09:58:07.591Z,96588.94
2023-04-23T10:00:37.154Z,96579.53
2023-04-23T10:03:05.083Z,96585.91
2023-04-23T10:05:41.092Z,96577.50
2023-04-23T10:08:17.430Z,96579.94
2023-04-23T10:10:59.476Z,96582.25
2023-04-23T10:13:31.365Z,96574.94
2023-04-23T10:16:07.505Z,96576.28
2023-04-23T10:18:45.506Z,96574.72
2023-04-23T10:21:14.754Z,96569.56
2023-04-23T10:23:44.331Z,96564.94
2023-04-23T10:26:14.858Z,96567.78
2023-04-23T10:28:47.027Z,96569.13
2023-04-23T10:31:13.816Z,96557.41
2023-04-23T10:33:55.907Z,96559.81
2023-04-23T10:36:27.585Z,96544.34
2023-04-23T10:38:59.022Z,96542.59
2023-04-23T10:41:34.851Z,96537.94
2023-04-23T10:44:01.426Z,96536.44
2023-04-23T10:46:30.017Z,96528.97
2023-04-23T10:49:16.671Z,96533.84
2023-04-23T10:54:19.904Z,96532.19
2023-04-23T10:56:46.541Z,96530.16
2023-04-23T10:59:22.748Z,96525.94
2023-04-23T11:01:52.740Z,96511.44
2023-04-23T11:04:21.399Z,96517.94
2023-04-23T11:06:48.033Z,96514.66
2023-04-23T11:09:37.861Z,96502.00
2023-04-23T11:12:10.858Z,96502.88
2023-04-23T11:14:41.470Z,96501.91
2023-04-23T11:17:08.139Z,96495.75
2023-04-23T11:19:39.053Z,96500.13
2023-04-23T11:22:18.549Z,96488.22
2023-04-23T11:24:48.249Z,96480.00
2023-04-23T11:27:18.590Z,96471.63
2023-04-23T11:29:46.694Z,96477.56
2023-04-23T11:32:18.011Z,96478.50
2023-04-23T11:34:47.441Z,96468.75
2023-04-23T11:37:15.527Z,96466.66
2023-04-23T11:39:44.398Z,96467.00
2023-04-23T11:42:20.085Z,96455.72
2023-04-23T11:44:47.781Z,96463.09
2023-04-23T11:47:16.628Z,96460.56
2023-04-23T11:49:52.269Z,96443.66
2023-04-23T11:52:20.000Z,96434.34
2023-04-23T11:54:51.511Z,96430.53
2023-04-23T11:57:26.616Z,96427.94
2023-04-23T11:59:53.649Z,96433.72
2023-04-23T12:02:24.238Z,96436.22
2023-04-23T12:04:50.980Z,96421.47
2023-04-23T12:07:26.341Z,96411.72
2023-04-23T12:10:07.682Z,96406.22
2023-04-23T12:12:42.581Z,96401.75
2023-04-23T12:52:47.461Z,96356.72
2023-04-23T12:55:59.639Z,96352.06
2023-04-23T12:58:27.906Z,96350.69
2023-04-23T13:00:54.780Z,96344.72
2023-04-23T13:03:42.384Z,96334.25
2023-04-23T13:13:54.937Z,96317.41
2023-04-23T13:16:55.049Z,96314.13
2023-04-23T13:19:21.596Z,96298.78
2023-04-23T13:21:48.062Z,96292.38
2023-04-23T13:24:14.569Z,96294.16
2023-04-23T13:26:41.058Z,96286.41
2023-04-23T13:29:07.597Z,96276.69
2023-04-23T13:31:34.373Z,96272.91
2023-04-23T13:34:02.856Z,96269.75
2023-04-23T13:36:29.467Z,96255.78
2023-04-23T13:38:55.996Z,96251.22
2023-04-23T13:41:22.478Z,96243.47
2023-04-23T13:43:48.956Z,96242.69
2023-04-23T13:46:16.765Z,96241.91
2023-04-23T13:48:43.389Z,96237.22
2023-04-23T13:51:25.382Z,96237.19
2023-04-23T13:53:56.366Z,96223.19
2023-04-23T13:56:23.031Z,96227.91
2023-04-23T13:58:52.942Z,96219.91
2023-04-23T14:01:19.613Z,96219.91
2023-04-23T14:03:47.308Z,96216.56
2023-04-23T14:06:13.867Z,96206.84
2023-04-23T14:08:41.062Z,96202.91
2023-04-23T14:11:07.620Z,96202.09
2023-04-23T14:13:34.126Z,96196.31
2023-04-23T14:16:03.390Z,96190.31
2023-04-23T14:18:30.332Z,96203.16
2023-04-23T14:20:57.070Z,96189.31
2023-04-23T14:23:23.503Z,96183.97
2023-04-23T14:26:04.572Z,96178.69
2023-04-23T14:28:39.071Z,96180.50
2023-04-23T14:31:05.842Z,96182.25
2023-04-23T14:33:32.400Z,96171.06
2023-04-23T14:35:59.211Z,96180.97
2023-04-23T14:38:26.843Z,96175.47
2023-04-23T14:40:53.783Z,96166.53
2023-04-23T14:43:20.456Z,96164.31
2023-04-23T14:45:47.335Z,96167.13
2023-04-23T14:48:13.911Z,96161.44
2023-04-23T14:50:40.443Z,96162.81
2023-04-23T14:53:09.928Z,96157.31
2023-04-23T14:55:36.784Z,96158.97
2023-04-23T14:58:03.265Z,96154.28
2023-04-23T15:00:30.199Z,96149.16
2023-04-23T15:02:57.020Z,96151.28
2023-04-23T15:05:23.895Z,96149.88
2023-04-23T15:07:51.753Z,96151.53
2023-04-23T15:10:19.393Z,96147.00
2023-04-23T15:12:53.396Z,96138.53
2023-04-23T15:15:37.022Z,96137.00
2023-04-23T15:18:10.631Z,96125.03
2023-04-23T15:20:37.415Z,96136.41
2023-04-23T15:23:04.359Z,96130.13
2023-04-23T15:25:33.122Z,96131.09
2023-04-23T15:28:00.891Z,96128.97
2023-04-23T15:30:28.085Z,96121.56
2023-04-23T15:32:55.472Z,96120.09
2023-04-23T15:35:25.883Z,96113.19
2023-04-23T15:37:54.548Z,96110.88
2023-04-23T15:40:21.160Z,96114.97
2023-04-23T15:42:49.890Z,96120.25
2023-04-23T15:45:17.102Z,96111.97
2023-04-23T15:47:43.833Z,96106.97
2023-04-23T15:50:11.742Z,96097.91
2023-04-23T15:52:39.063Z,96100.38
2023-04-23T15:55:11.189Z,96092.91
2023-04-23T15:57:37.658Z,96093.78
2023-04-23T16:00:06.083Z,96099.19
2023-04-23T16:02:34.546Z,96093.53
2023-04-23T16:05:01.817Z,96090.53
2023-04-23T16:07:28.426Z,96090.81
2023-04-23T16:09:54.937Z,96086.19
2023-04-23T16:12:21.445Z,96080.44
2023-04-23T16:14:47.951Z,96084.19
2023-04-23T16:17:14.509Z,96071.34
2023-04-23T16:19:41.275Z,96080.09
2023-04-23T16:22:07.912Z,96076.81
2023-04-23T16:24:34.406Z,96067.06
2023-04-23T16:27:02.510Z,96077.63
2023-04-23T16:29:29.441Z,96072.91
2023-04-23T16:31:55.983Z,96078.66
2023-04-23T16:34:22.537Z,96073.22
2023-04-23T16:36:49.086Z,96081.13
2023-04-23T16:39:16.177Z,96074.50
2023-04-23T16:41:42.789Z,96085.78
2023-04-23T16:44:09.277Z,96077.47
2023-04-23T16:46:36.099Z,96079.09
2023-04-23T16:49:02.757Z,96076.44
2023-04-23T16:51:36.064Z,96075.91
2023-04-23T16:54:12.063Z,96082.41
2023-04-23T16:56:38.698Z,96080.84
2023-04-23T16:59:05.366Z,96076.09
2023-04-23T17:01:31.918Z,96072.34
2023-04-23T17:03:58.559Z,96074.03
2023-04-23T17:06:29.527Z,96062.75
2023-04-23T17:08:57.813Z,96069.06
2023-04-23T17:11:26.023Z,96066.59
2023-04-23T17:13:52.827Z,96065.28
2023-04-23T17:16:19.422Z,96064.81
2023-04-23T17:18:46.328Z,96060.19
2023-04-23T17:21:12.924Z,96059.25
2023-04-23T17:23:39.751Z,96066.28
2023-04-23T17:26:06.827Z,96065.16
2023-04-23T17:28:33.349Z,96065.84
2023-04-23T17:31:01.228Z,96069.34
2023-04-23T17:33:27.838Z,96060.25
2023-04-23T17:35:55.829Z,96059.94
2023-04-23T17:38:22.799Z,96057.81
2023-04-23T17:40:50.188Z,96053.00
2023-04-23T17:43:17.419Z,96053.72
2023-04-23T17:45:45.330Z,96049.09
2023-04-23T17:48:12.699Z,96047.94
2023-04-23T17:50:39.515Z,96034.66
2023-04-23T17:53:06.213Z,96040.84
2023-04-23T17:55:33.213Z,96031.25
2023-04-23T17:58:05.092Z,96021.16
2023-04-23T18:00:36.128Z,96010.72
2023-04-23T18:03:03.942Z,96013.41
2023-04-23T18:05:31.162Z,96004.63
2023-04-23T18:07:58.095Z,95997.63
2023-04-23T18:10:24.737Z,95998.66
2023-04-23T18:12:51.758Z,95992.53
2023-04-23T18:15:18.396Z,95989.88
2023-04-23T18:17:45.481Z,95989.25
2023-04-23T18:20:12.705Z,95992.06
2023-04-23T18:22:41.172Z,95994.56
2023-04-23T18:25:10.116Z,96006.69
2023-04-23T18:27:36.731Z,96011.81
2023-04-23T18:30:05.552Z,96021.94
2023-04-23T18:32:40.075Z,96017.63
2023-04-23T18:35:08.168Z,96013.81
2023-04-23T18:37:41.743Z,96015.13
2023-04-23T18:40:09.134Z,96013.16
2023-04-23T18:42:35.714Z,96026.41
2023-04-23T18:45:04.215Z,96021.94
2023-04-23T18:47:36.825Z,96034.03
2023-04-23T18:50:28.953Z,96032.88
2023-04-23T18:52:55.739Z,96038.53
2023-04-23T18:55:22.380Z,96038.69
2023-04-23T18:57:48.883Z,96040.69
2023-04-23T19:00:15.803Z,96027.72
2023-04-23T19:02:42.492Z,96030.38
2023-04-23T19:05:09.274Z,96040.00
2023-04-23T19:07:37.315Z,96034.19
2023-04-23T19:10:04.106Z,96044.16
2023-04-23T19:12:30.598Z,96038.50
2023-04-23T19:14:57.074Z,96039.66
2023-04-23T19:17:23.682Z,96042.09
2023-04-23T19:19:50.219Z,96050.19
2023-04-23T19:22:16.770Z,96095.13
2023-04-23T19:24:43.241Z,96110.84
2023-04-23T19:27:12.426Z,96098.41
2023-04-23T19:29:39.554Z,96095.75
2023-04-23T19:32:06.636Z,96115.00
2023-04-23T19:34:33.091Z,96124.97
2023-04-23T19:36:59.596Z,96133.75
2023-04-23T19:39:26.764Z,96134.91
2023-04-23T19:41:53.176Z,96140.97
2023-04-23T19:44:19.543Z,96143.59
2023-04-23T19:46:46.120Z,96148.59
2023-04-23T19:49:12.643Z,96153.88
2023-04-23T19:51:39.997Z,96154.59
2023-04-23T19:54:06.696Z,96151.38
2023-04-23T19:56:33.204Z,96159.72
2023-04-23T19:58:59.858Z,96163.75
2023-04-23T20:01:28.165Z,96170.56
2023-04-23T20:03:55.204Z,96167.53
2023-04-23T20:06:21.893Z,96169.59
2023-04-23T20:09:07.007Z,96161.53
2023-04-23T20:11:35.354Z,96164.44
2023-04-23T20:14:02.435Z,96160.56
2023-04-23T20:16:29.060Z,96165.16
2023-04-23T20:18:56.082Z,96153.63
2023-04-23T20:21:23.055Z,96140.28
2023-04-23T20:23:50.977Z,96133.88
2023-04-23T20:26:18.797Z,96128.03
2023-04-23T20:28:47.354Z,96126.66
2023-04-23T20:31:14.851Z,96126.09
2023-04-23T20:33:41.471Z,96123.47
2023-04-23T20:36:11.172Z,96125.16
2023-04-23T20:38:38.095Z,96118.19
2023-04-23T20:41:05.974Z,96121.41
2023-04-23T20:43:34.198Z,96130.69
2023-04-23T20:46:01.571Z,96138.47
2023-04-23T20:48:29.967Z,96169.31
2023-04-23T20:50:59.707Z,96208.34
2023-04-23T20:53:26.629Z,96223.59
2023-04-23T20:55:53.102Z,96222.06
2023-04-23T20:58:19.647Z,96231.50
2023-04-23T21:00:46.425Z,96238.19
2023-04-23T21:03:13.230Z,96236.53
2023-04-23T21:05:44.410Z,96245.84
2023-04-23T21:08:11.481Z,96249.44
2023-04-23T21:10:39.086Z,96255.31
2023-04-23T21:13:07.629Z,96256.00
2023-04-23T21:15:35.561Z,96256.13
2023-04-23T21:18:02.793Z,96256.00
2023-04-23T21:20:29.756Z,96248.19
2023-04-23T21:22:56.260Z,96260.88
2023-04-23T21:25:22.854Z,96261.41
2023-04-23T21:27:49.551Z,96263.59
2023-04-23T21:30:24.626Z,96267.34
2023-04-23T21:32:52.216Z,96267.50
2023-04-23T21:35:18.905Z,96265.38
2023-04-23T21:37:45.400Z,96261.34
2023-04-23T21:40:12.063Z,96267.34
2023-04-23T21:42:39.084Z,96261.91
2023-04-23T21:45:06.433Z,96267.06
2023-04-23T21:47:44.572Z,96262.19
2023-04-23T21:50:11.544Z,96263.31
2023-04-23T21:52:38.218Z,96267.03
2023-04-23T21:55:05.501Z,96257.31
2023-04-23T21:57:33.497Z,96263.56
2023-04-23T22:00:00.515Z,96254.81
2023-04-23T22:02:27.209Z,96260.91
2023-04-23T22:04:53.804Z,96256.63
2023-04-23T22:07:20.752Z,96262.88
2023-04-23T22:09:47.266Z,96259.78
2023-04-23T22:12:13.799Z,96270.03
2023-04-23T22:14:40.438Z,96258.09
2023-04-23T22:17:07.588Z,96260.97
2023-04-23T22:19:34.316Z,96258.47
2023-04-23T22:22:51.847Z,96260.44
2023-04-23T22:25:19.462Z,96259.34
2023-04-23T22:27:45.957Z,96260.16
2023-04-23T22:30:12.782Z,96267.78
2023-04-23T22:32:39.992Z,96264.34
2023-04-23T22:35:07.921Z,96260.44
2023-04-23T22:37:34.788Z,96271.09
2023-04-23T22:40:01.522Z,96272.91
2023-04-23T22:42:28.025Z,96273.28
2023-04-23T22:44:54.582Z,96268.16
2023-04-23T22:47:21.704Z,96263.16
2023-04-23T22:49:48.277Z,96266.59
2023-04-23T22:52:15.825Z,96265.78
2023-04-23T22:54:43.164Z,96265.78
2023-04-23T22:57:10.436Z,96270.78
2023-04-23T22:59:39.324Z,96260.66
2023-04-23T23:02:06.852Z,96258.00
2023-04-23T23:04:37.459Z,96261.75
2023-04-23T23:07:05.522Z,96255.75
2023-04-23T23:09:32.504Z,96253.13
2023-04-23T23:12:03.096Z,96253.31
2023-04-23T23:14:30.227Z,96255.63
2023-04-23T23:16:57.155Z,96247.31
2023-04-23T23:19:57.240Z,96245.03
2023-04-23T23:58:13.715Z,96237.66
